Details From CYEG - Edmonton Intl
To CYZH - Slave Lake
Flight Number -
Tags Generated
Created
Modified
Stats Distance 126 nm / 234 km
Max Altitude 0 ft / 0 m
Waypoints 2
Social Downloads 1
Likes 0
Share VATSIM

Download

Looking for another format? Having issues loading an existing format? Contact us
Advertisement - Login to hide

Notes

Generated

Route

CYEG CYZH

ID Type Via Altitude Latitude Longitude Leg Dist Tot Dist Heading (true) Name
O CYEG APT - 0 ft / 0 m 53.30966˚ -113.59611˚ - 0 nm - -
O CYZH APT - 0 ft / 0 m 55.29648˚ -114.79041˚ 126 nm 126 nm 341° / 340° -

Altitude Profile

Advertisement - Login to hide

CYEG

Details ICAO CYEG (YEG)
Name Edmonton Intl
Region Canada
Timezone America/Edmonton (UTC-7.0)
Stats Elevation 2,373 ft / 723 m (AMSL)
Location 53.309882° -113.580131°
Runways 2
Magnetic Variation 14.344° E

METAR

CYEG 170600Z 18009KT 15SM SCT130 BKN210 M05/M10 A2968 RMK AS4CI3 SLP089

Decode

TAF

TAF CYEG 170541Z 1706/1806 20010KT P6SM SCT050 BKN100 OVC200 PROB30 1709/1712 P6SM -FZRA OVC050 FM171500 27015G25KT WS005/29030KT P6SM FEW080 SCT220 FM172200 28012G22KT P6SM SCT080 BKN200 RMK NXT FCST BY 170900Z

Decode

Departure Runways

ID Width Length Bearing (true) Bearing (mag) Surface Threshold Offset Overrun Length
02 200 ft / 61 m 11,010 ft / 3,356 m 35.39° 21.05° Asphalt 0 ft / 0 m 0 ft / 0 m
12 200 ft / 61 m 10,210 ft / 3,112 m 135.18° 120.84° Asphalt 0 ft / 0 m 0 ft / 0 m
20 200 ft / 61 m 11,010 ft / 3,356 m 215.41° 201.07° Asphalt 0 ft / 0 m 0 ft / 0 m
30 200 ft / 61 m 10,210 ft / 3,112 m 315.21° 300.87° Asphalt 0 ft / 0 m 0 ft / 0 m

CYZH

Details ICAO CYZH (YZH)
Name SLAVE LAKE
Region Canada
Timezone America/Edmonton (UTC-7.0)
Stats Elevation 1,912 ft / 583 m (AMSL)
Location 55.293303° -114.778310°
Runways 1
Magnetic Variation 15.290° E

METAR

CYZH 170600Z AUTO 09004KT 060V120 9SM BKN046 OVC055 M04/M08 A2954 RMK SLP035

Decode

TAF

TAF CYZH 170639Z 1707/1719 VRB03KT WS010/25030KT P6SM BKN040 OVC080 TEMPO 1707/1711 2SM -SHSN OVC020 PROB30 1707/1711 P6SM -FZRA FM171100 26015KT P6SM SCT040 BECMG 1712/1714 28020G30KT RMK FCST BASED ON AUTO OBS. NXT FCST BY 171300Z

Decode

Destination Runways

ID Width Length Bearing (true) Bearing (mag) Surface Threshold Offset Overrun Length
10 100 ft / 30 m 5,535 ft / 1,687 m 114.74° 99.45° Asphalt 0 ft / 0 m 0 ft / 0 m
28 100 ft / 30 m 5,535 ft / 1,687 m 294.76° 279.47° Asphalt 557 ft / 170 m 0 ft / 0 m